sensor_id;sensor_type;location;lat;lon;timestamp;pressure;altitude;pressure_sealevel;temperature
77412;BMP280;66484;49.968;19.140;2024-02-21T00:00:12;98528.84;;;7.30
77412;BMP280;66484;49.968;19.140;2024-02-21T00:02:53;98534.41;;;7.35
77412;BMP280;66484;49.968;19.140;2024-02-21T00:05:09;98532.63;;;7.44
77412;BMP280;66484;49.968;19.140;2024-02-21T00:07:24;98523.47;;;7.45
77412;BMP280;66484;49.968;19.140;2024-02-21T00:09:39;98525.19;;;7.52
77412;BMP280;66484;49.968;19.140;2024-02-21T00:11:54;98526.59;;;7.56
77412;BMP280;66484;49.968;19.140;2024-02-21T00:14:09;98519.25;;;7.60
77412;BMP280;66484;49.968;19.140;2024-02-21T00:16:30;98521.16;;;7.72
77412;BMP280;66484;49.968;19.140;2024-02-21T00:18:39;98513.50;;;7.74
77412;BMP280;66484;49.968;19.140;2024-02-21T00:21:00;98521.28;;;7.69
77412;BMP280;66484;49.968;19.140;2024-02-21T00:23:29;98521.34;;;7.65
77412;BMP280;66484;49.968;19.140;2024-02-21T00:25:38;98516.78;;;7.53
77412;BMP280;66484;49.968;19.140;2024-02-21T00:27:59;98523.25;;;7.40
77412;BMP280;66484;49.968;19.140;2024-02-21T00:30:09;98522.16;;;7.38
77412;BMP280;66484;49.968;19.140;2024-02-21T00:32:38;98522.94;;;7.50
77412;BMP280;66484;49.968;19.140;2024-02-21T00:35:07;98511.00;;;7.43
77412;BMP280;66484;49.968;19.140;2024-02-21T00:37:29;98505.94;;;7.32
77412;BMP280;66484;49.968;19.140;2024-02-21T00:39:43;98508.38;;;7.27
77412;BMP280;66484;49.968;19.140;2024-02-21T00:41:59;98500.31;;;7.30
77412;BMP280;66484;49.968;19.140;2024-02-21T00:44:13;98501.69;;;7.35
77412;BMP280;66484;49.968;19.140;2024-02-21T00:46:29;98494.84;;;7.34
77412;BMP280;66484;49.968;19.140;2024-02-21T00:48:44;98486.53;;;7.32
77412;BMP280;66484;49.968;19.140;2024-02-21T00:50:52;98477.78;;;7.31
77412;BMP280;66484;49.968;19.140;2024-02-21T00:53:15;98483.75;;;7.23
77412;BMP280;66484;49.968;19.140;2024-02-21T00:55:23;98474.88;;;7.13
77412;BMP280;66484;49.968;19.140;2024-02-21T00:57:44;98488.91;;;7.01
77412;BMP280;66484;49.968;19.140;2024-02-21T00:59:53;98478.34;;;6.98
77412;BMP280;66484;49.968;19.140;2024-02-21T01:02:22;98474.75;;;7.04
77412;BMP280;66484;49.968;19.140;2024-02-21T01:04:55;98473.59;;;7.05
77412;BMP280;66484;49.968;19.140;2024-02-21T01:07:23;98462.16;;;7.05
77412;BMP280;66484;49.968;19.140;2024-02-21T01:09:52;98466.00;;;7.04
77412;BMP280;66484;49.968;19.140;2024-02-21T01:12:21;98462.34;;;6.98
77412;BMP280;66484;49.968;19.140;2024-02-21T01:14:50;98459.38;;;6.96
77412;BMP280;66484;49.968;19.140;2024-02-21T01:17:19;98469.09;;;6.74
77412;BMP280;66484;49.968;19.140;2024-02-21T01:19:28;98472.59;;;6.71
77412;BMP280;66484;49.968;19.140;2024-02-21T01:21:56;98461.94;;;6.71
77412;BMP280;66484;49.968;19.140;2024-02-21T01:24:05;98464.63;;;6.71
77412;BMP280;66484;49.968;19.140;2024-02-21T01:26:26;98463.28;;;6.79
77412;BMP280;66484;49.968;19.140;2024-02-21T01:28:35;98460.84;;;6.85
77412;BMP280;66484;49.968;19.140;2024-02-21T01:30:57;98466.84;;;6.73
77412;BMP280;66484;49.968;19.140;2024-02-21T01:33:05;98452.47;;;6.70
77412;BMP280;66484;49.968;19.140;2024-02-21T01:35:34;98456.31;;;6.82
77412;BMP280;66484;49.968;19.140;2024-02-21T01:37:42;98451.78;;;6.82
77412;BMP280;66484;49.968;19.140;2024-02-21T01:40:04;98443.78;;;6.82
77412;BMP280;66484;49.968;19.140;2024-02-21T01:42:13;98447.56;;;6.97
77412;BMP280;66484;49.968;19.140;2024-02-21T01:44:42;98444.69;;;7.04
77412;BMP280;66484;49.968;19.140;2024-02-21T01:46:52;98444.69;;;7.04
77412;BMP280;66484;49.968;19.140;2024-02-21T01:49:22;98440.41;;;7.06
77412;BMP280;66484;49.968;19.140;2024-02-21T01:51:50;98445.25;;;7.11
77412;BMP280;66484;49.968;19.140;2024-02-21T01:54:20;98429.53;;;7.01
77412;BMP280;66484;49.968;19.140;2024-02-21T01:56:28;98436.56;;;6.95
77412;BMP280;66484;49.968;19.140;2024-02-21T01:58:57;98439.38;;;7.04
77412;BMP280;66484;49.968;19.140;2024-02-21T02:01:26;98438.81;;;6.96
77412;BMP280;66484;49.968;19.140;2024-02-21T02:03:34;98440.53;;;7.03
77412;BMP280;66484;49.968;19.140;2024-02-21T02:06:05;98439.38;;;7.04
77412;BMP280;66484;49.968;19.140;2024-02-21T02:08:35;98434.25;;;7.09
77412;BMP280;66484;49.968;19.140;2024-02-21T02:10:50;98432.09;;;6.92
77412;BMP280;66484;49.968;19.140;2024-02-21T02:13:05;98436.13;;;6.96
77412;BMP280;66484;49.968;19.140;2024-02-21T02:15:22;98433.78;;;6.86
77412;BMP280;66484;49.968;19.140;2024-02-21T02:17:43;98434.84;;;7.01
77412;BMP280;66484;49.968;19.140;2024-02-21T02:19:59;98421.91;;;7.15
77412;BMP280;66484;49.968;19.140;2024-02-21T02:22:22;98433.94;;;7.20
77412;BMP280;66484;49.968;19.140;2024-02-21T02:24:34;98436.41;;;7.27
77412;BMP280;66484;49.968;19.140;2024-02-21T02:26:55;98434.09;;;7.41
77412;BMP280;66484;49.968;19.140;2024-02-21T02:29:04;98437.06;;;7.43
77412;BMP280;66484;49.968;19.140;2024-02-21T02:31:12;98430.47;;;7.47
77412;BMP280;66484;49.968;19.140;2024-02-21T02:33:27;98432.16;;;7.42
77412;BMP280;66484;49.968;19.140;2024-02-21T02:35:43;98439.09;;;7.39
77412;BMP280;66484;49.968;19.140;2024-02-21T02:37:58;98434.53;;;7.40
77412;BMP280;66484;49.968;19.140;2024-02-21T02:40:13;98424.38;;;7.47
77412;BMP280;66484;49.968;19.140;2024-02-21T02:42:27;98415.44;;;7.41
77412;BMP280;66484;49.968;19.140;2024-02-21T02:44:43;98427.47;;;7.45
77412;BMP280;66484;49.968;19.140;2024-02-21T02:47:04;98430.47;;;7.47
77412;BMP280;66484;49.968;19.140;2024-02-21T02:49:13;98423.66;;;7.59
77412;BMP280;66484;49.968;19.140;2024-02-21T02:51:34;98420.78;;;7.41
77412;BMP280;66484;49.968;19.140;2024-02-21T02:53:43;98425.09;;;7.23
77412;BMP280;66484;49.968;19.140;2024-02-21T02:56:05;98425.75;;;7.27
77412;BMP280;66484;49.968;19.140;2024-02-21T02:58:14;98413.78;;;7.19
77412;BMP280;66484;49.968;19.140;2024-02-21T03:00:35;98415.69;;;7.06
77412;BMP280;66484;49.968;19.140;2024-02-21T03:02:48;98407.16;;;6.98
77412;BMP280;66484;49.968;19.140;2024-02-21T03:05:19;98414.84;;;7.09
77412;BMP280;66484;49.968;19.140;2024-02-21T03:07:34;98411.91;;;6.79
77412;BMP280;66484;49.968;19.140;2024-02-21T03:09:48;98418.34;;;6.93
77412;BMP280;66484;49.968;19.140;2024-02-21T03:12:05;98419.72;;;6.98
77412;BMP280;66484;49.968;19.140;2024-02-21T03:14:20;98426.63;;;6.95
77412;BMP280;66484;49.968;19.140;2024-02-21T03:16:36;98423.56;;;6.97
77412;BMP280;66484;49.968;19.140;2024-02-21T03:18:57;98420.13;;;6.84
77412;BMP280;66484;49.968;19.140;2024-02-21T03:21:13;98411.63;;;6.89
77412;BMP280;66484;49.968;19.140;2024-02-21T03:23:27;98417.22;;;6.79
77412;BMP280;66484;49.968;19.140;2024-02-21T03:25:43;98407.34;;;6.79
77412;BMP280;66484;49.968;19.140;2024-02-21T03:27:51;98410.97;;;6.85
77412;BMP280;66484;49.968;19.140;2024-02-21T03:30:06;98407.34;;;6.79
77412;BMP280;66484;49.968;19.140;2024-02-21T03:32:21;98406.06;;;6.84
77412;BMP280;66484;49.968;19.140;2024-02-21T03:34:42;98400.66;;;6.99
77412;BMP280;66484;49.968;19.140;2024-02-21T03:36:58;98402.34;;;6.93
77412;BMP280;66484;49.968;19.140;2024-02-21T03:39:12;98389.97;;;6.87
77412;BMP280;66484;49.968;19.140;2024-02-21T03:41:28;98407.22;;;6.83
77412;BMP280;66484;49.968;19.140;2024-02-21T03:43:43;98400.19;;;6.88
77412;BMP280;66484;49.968;19.140;2024-02-21T03:46:06;98404.25;;;6.81
77412;BMP280;66484;49.968;19.140;2024-02-21T03:48:36;98402.16;;;6.72
77412;BMP280;66484;49.968;19.140;2024-02-21T03:50:44;98389.34;;;6.55
77412;BMP280;66484;49.968;19.140;2024-02-21T03:53:06;98394.25;;;6.56
77412;BMP280;66484;49.968;19.140;2024-02-21T03:55:14;98393.59;;;6.52
77412;BMP280;66484;49.968;19.140;2024-02-21T03:57:44;98388.78;;;6.47
77412;BMP280;66484;49.968;19.140;2024-02-21T04:00:13;98391.63;;;6.40
77412;BMP280;66484;49.968;19.140;2024-02-21T04:02:21;98403.78;;;6.41
77412;BMP280;66484;49.968;19.140;2024-02-21T04:04:43;98398.44;;;6.41
77412;BMP280;66484;49.968;19.140;2024-02-21T04:06:55;98383.69;;;6.53
77412;BMP280;66484;49.968;19.140;2024-02-21T04:09:21;98383.44;;;6.47
77412;BMP280;66484;49.968;19.140;2024-02-21T04:11:30;98376.97;;;6.48
77412;BMP280;66484;49.968;19.140;2024-02-21T04:13:58;98374.72;;;6.47
77412;BMP280;66484;49.968;19.140;2024-02-21T04:16:27;98378.34;;;6.53
77412;BMP280;66484;49.968;19.140;2024-02-21T04:18:36;98373.03;;;6.53
77412;BMP280;66484;49.968;19.140;2024-02-21T04:20:58;98375.31;;;6.54
77412;BMP280;66484;49.968;19.140;2024-02-21T04:23:07;98378.03;;;6.51
77412;BMP280;66484;49.968;19.140;2024-02-21T04:25:28;98371.56;;;6.52
77412;BMP280;66484;49.968;19.140;2024-02-21T04:27:40;98375.19;;;6.58
77412;BMP280;66484;49.968;19.140;2024-02-21T04:30:02;98372.03;;;6.63
77412;BMP280;66484;49.968;19.140;2024-02-21T04:32:11;98371.78;;;6.57
77412;BMP280;66484;49.968;19.140;2024-02-21T04:34:32;98370.47;;;6.49
77412;BMP280;66484;49.968;19.140;2024-02-21T04:36:41;98373.81;;;6.53
77412;BMP280;66484;49.968;19.140;2024-02-21T04:39:02;98371.09;;;6.41
77412;BMP280;66484;49.968;19.140;2024-02-21T04:41:11;98365.00;;;6.40
77412;BMP280;66484;49.968;19.140;2024-02-21T04:43:39;98365.00;;;6.40
77412;BMP280;66484;49.968;19.140;2024-02-21T04:46:08;98370.78;;;6.51
77412;BMP280;66484;49.968;19.140;2024-02-21T04:48:18;98364.66;;;6.54
77412;BMP280;66484;49.968;19.140;2024-02-21T04:50:39;98372.41;;;6.49
77412;BMP280;66484;49.968;19.140;2024-02-21T04:52:50;98369.97;;;6.54
77412;BMP280;66484;49.968;19.140;2024-02-21T04:54:58;98371.06;;;6.69
77412;BMP280;66484;49.968;19.140;2024-02-21T04:57:12;98356.97;;;6.56
77412;BMP280;66484;49.968;19.140;2024-02-21T04:59:32;98359.50;;;6.47
77412;BMP280;66484;49.968;19.140;2024-02-21T05:01:46;98364.69;;;6.38
77412;BMP280;66484;49.968;19.140;2024-02-21T05:04:08;98369.91;;;6.14
77412;BMP280;66484;49.968;19.140;2024-02-21T05:06:41;98366.22;;;6.24
77412;BMP280;66484;49.968;19.140;2024-02-21T05:08:50;98364.09;;;6.19
77412;BMP280;66484;49.968;19.140;2024-02-21T05:11:19;98359.56;;;6.16
77412;BMP280;66484;49.968;19.140;2024-02-21T05:13:48;98358.03;;;6.02
77412;BMP280;66484;49.968;19.140;2024-02-21T05:15:57;98358.38;;;6.04
77412;BMP280;66484;49.968;19.140;2024-02-21T05:18:27;98353.63;;;5.96
77412;BMP280;66484;49.968;19.140;2024-02-21T05:20:56;98349.66;;;5.88
77412;BMP280;66484;49.968;19.140;2024-02-21T05:23:24;98352.00;;;5.86
77412;BMP280;66484;49.968;19.140;2024-02-21T05:25:33;98353.09;;;5.88
77412;BMP280;66484;49.968;19.140;2024-02-21T05:28:01;98349.16;;;5.77
77412;BMP280;66484;49.968;19.140;2024-02-21T05:30:12;98353.00;;;5.76
77412;BMP280;66484;49.968;19.140;2024-02-21T05:32:33;98351.81;;;5.77
77412;BMP280;66484;49.968;19.140;2024-02-21T05:34:42;98342.94;;;5.83
77412;BMP280;66484;49.968;19.140;2024-02-21T05:37:05;98343.19;;;5.89
77412;BMP280;66484;49.968;19.140;2024-02-21T05:39:14;98351.28;;;5.98
77412;BMP280;66484;49.968;19.140;2024-02-21T05:41:22;98340.16;;;6.03
77412;BMP280;66484;49.968;19.140;2024-02-21T05:43:36;98340.31;;;6.12
77412;BMP280;66484;49.968;19.140;2024-02-21T05:45:44;98339.31;;;6.06
77412;BMP280;66484;49.968;19.140;2024-02-21T05:47:53;98347.16;;;5.97
77412;BMP280;66484;49.968;19.140;2024-02-21T05:50:14;98350.47;;;6.01
77412;BMP280;66484;49.968;19.140;2024-02-21T05:52:30;98341.50;;;5.95
77412;BMP280;66484;49.968;19.140;2024-02-21T05:54:51;98334.19;;;5.99
77412;BMP280;66484;49.968;19.140;2024-02-21T05:57:08;98327.03;;;6.12
77412;BMP280;66484;49.968;19.140;2024-02-21T05:59:22;98329.44;;;6.06
77412;BMP280;66484;49.968;19.140;2024-02-21T06:01:38;98327.56;;;6.19
77412;BMP280;66484;49.968;19.140;2024-02-21T06:03:52;98331.50;;;6.15
77412;BMP280;66484;49.968;19.140;2024-02-21T06:06:07;98339.09;;;6.29
77412;BMP280;66484;49.968;19.140;2024-02-21T06:08:29;98331.97;;;6.26
77412;BMP280;66484;49.968;19.140;2024-02-21T06:10:45;98340.84;;;6.47
77412;BMP280;66484;49.968;19.140;2024-02-21T06:13:10;98336.53;;;6.53
77412;BMP280;66484;49.968;19.140;2024-02-21T06:15:19;98333.91;;;6.66
77412;BMP280;66484;49.968;19.140;2024-02-21T06:17:40;98328.91;;;6.80
77412;BMP280;66484;49.968;19.140;2024-02-21T06:19:56;98333.16;;;6.90
77412;BMP280;66484;49.968;19.140;2024-02-21T06:22:11;98331.72;;;7.14
77412;BMP280;66484;49.968;19.140;2024-02-21T06:24:27;98327.97;;;7.11
77412;BMP280;66484;49.968;19.140;2024-02-21T06:26:41;98328.50;;;7.31
77412;BMP280;66484;49.968;19.140;2024-02-21T06:28:56;98334.25;;;7.42
77412;BMP280;66484;49.968;19.140;2024-02-21T06:31:18;98330.41;;;7.55
77412;BMP280;66484;49.968;19.140;2024-02-21T06:33:27;98326.44;;;7.72
77412;BMP280;66484;49.968;19.140;2024-02-21T06:35:48;98326.72;;;7.87
77412;BMP280;66484;49.968;19.140;2024-02-21T06:38:05;98324.50;;;7.85
77412;BMP280;66484;49.968;19.140;2024-02-21T06:40:28;98320.72;;;7.95
77412;BMP280;66484;49.968;19.140;2024-02-21T06:42:37;98327.13;;;7.97
77412;BMP280;66484;49.968;19.140;2024-02-21T06:44:58;98328.16;;;8.00
77412;BMP280;66484;49.968;19.140;2024-02-21T06:47:07;98325.81;;;8.02
77412;BMP280;66484;49.968;19.140;2024-02-21T06:49:35;98330.94;;;8.09
77412;BMP280;66484;49.968;19.140;2024-02-21T06:52:05;98328.72;;;7.95
77412;BMP280;66484;49.968;19.140;2024-02-21T06:54:13;98333.63;;;7.96
77412;BMP280;66484;49.968;19.140;2024-02-21T06:56:35;98324.72;;;8.12
77412;BMP280;66484;49.968;19.140;2024-02-21T06:58:44;98333.09;;;8.14
77412;BMP280;66484;49.968;19.140;2024-02-21T07:01:07;98332.50;;;8.19
77412;BMP280;66484;49.968;19.140;2024-02-21T07:03:16;98333.41;;;8.03
77412;BMP280;66484;49.968;19.140;2024-02-21T07:05:39;98337.38;;;7.99
77412;BMP280;66484;49.968;19.140;2024-02-21T07:07:48;98329.03;;;7.97
77412;BMP280;66484;49.968;19.140;2024-02-21T07:10:17;98321.81;;;7.85
77412;BMP280;66484;49.968;19.140;2024-02-21T07:12:46;98333.13;;;7.89
77412;BMP280;66484;49.968;19.140;2024-02-21T07:14:55;98323.59;;;8.00
77412;BMP280;66484;49.968;19.140;2024-02-21T07:17:23;98325.63;;;7.96
77412;BMP280;66484;49.968;19.140;2024-02-21T07:19:32;98320.56;;;8.11
77412;BMP280;66484;49.968;19.140;2024-02-21T07:21:53;98323.97;;;8.11
77412;BMP280;66484;49.968;19.140;2024-02-21T07:24:02;98323.72;;;8.31
77412;BMP280;66484;49.968;19.140;2024-02-21T07:26:31;98314.59;;;8.41
77412;BMP280;66484;49.968;19.140;2024-02-21T07:28:40;98314.03;;;8.46
77412;BMP280;66484;49.968;19.140;2024-02-21T07:31:01;98315.63;;;8.64
77412;BMP280;66484;49.968;19.140;2024-02-21T07:33:10;98316.56;;;8.70
77412;BMP280;66484;49.968;19.140;2024-02-21T07:35:38;98317.19;;;8.74
77412;BMP280;66484;49.968;19.140;2024-02-21T07:38:07;98310.28;;;8.86
77412;BMP280;66484;49.968;19.140;2024-02-21T07:40:20;98316.69;;;8.88
77412;BMP280;66484;49.968;19.140;2024-02-21T07:42:43;98319.81;;;8.65
77412;BMP280;66484;49.968;19.140;2024-02-21T07:44:52;98312.00;;;8.50
77412;BMP280;66484;49.968;19.140;2024-02-21T07:47:14;98311.38;;;8.46
77412;BMP280;66484;49.968;19.140;2024-02-21T07:49:23;98301.06;;;8.35
77412;BMP280;66484;49.968;19.140;2024-02-21T07:51:44;98306.53;;;8.32
77412;BMP280;66484;49.968;19.140;2024-02-21T07:53:53;98305.72;;;8.44
77412;BMP280;66484;49.968;19.140;2024-02-21T07:56:15;98300.94;;;8.39
77412;BMP280;66484;49.968;19.140;2024-02-21T07:58:23;98304.53;;;8.45
77412;BMP280;66484;49.968;19.140;2024-02-21T08:00:44;98297.56;;;8.26
77412;BMP280;66484;49.968;19.140;2024-02-21T08:02:53;98298.81;;;8.34
77412;BMP280;66484;49.968;19.140;2024-02-21T08:05:21;98297.69;;;8.44
77412;BMP280;66484;49.968;19.140;2024-02-21T08:07:51;98291.44;;;8.38
77412;BMP280;66484;49.968;19.140;2024-02-21T08:10:00;98289.69;;;8.65
77412;BMP280;66484;49.968;19.140;2024-02-21T08:12:24;98302.28;;;8.64
77412;BMP280;66484;49.968;19.140;2024-02-21T08:14:33;98293.44;;;8.55
77412;BMP280;66484;49.968;19.140;2024-02-21T08:17:01;98285.06;;;8.65
77412;BMP280;66484;49.968;19.140;2024-02-21T08:19:30;98282.41;;;8.65
77412;BMP280;66484;49.968;19.140;2024-02-21T08:21:39;98277.44;;;8.55
77412;BMP280;66484;49.968;19.140;2024-02-21T08:24:04;98277.81;;;8.45
77412;BMP280;66484;49.968;19.140;2024-02-21T08:26:12;98272.34;;;8.48
77412;BMP280;66484;49.968;19.140;2024-02-21T08:28:34;98271.56;;;8.39
77412;BMP280;66484;49.968;19.140;2024-02-21T08:30:43;98269.06;;;8.44
77412;BMP280;66484;49.968;19.140;2024-02-21T08:33:12;98272.75;;;8.38
77412;BMP280;66484;49.968;19.140;2024-02-21T08:35:20;98267.06;;;8.36
77412;BMP280;66484;49.968;19.140;2024-02-21T08:37:49;98264.66;;;8.29
77412;BMP280;66484;49.968;19.140;2024-02-21T08:39:57;98262.09;;;8.47
77412;BMP280;66484;49.968;19.140;2024-02-21T08:42:23;98252.53;;;8.58
77412;BMP280;66484;49.968;19.140;2024-02-21T08:44:41;98257.19;;;8.66
77412;BMP280;66484;49.968;19.140;2024-02-21T08:46:56;98257.88;;;8.88
77412;BMP280;66484;49.968;19.140;2024-02-21T08:49:12;98251.47;;;8.86
77412;BMP280;66484;49.968;19.140;2024-02-21T08:51:26;98247.94;;;8.89
77412;BMP280;66484;49.968;19.140;2024-02-21T08:53:56;98251.78;;;8.88
77412;BMP280;66484;49.968;19.140;2024-02-21T08:56:25;98248.81;;;8.86
77412;BMP280;66484;49.968;19.140;2024-02-21T08:58:38;98249.75;;;9.01
77412;BMP280;66484;49.968;19.140;2024-02-21T09:01:02;98252.28;;;8.95
77412;BMP280;66484;49.968;19.140;2024-02-21T09:03:12;98251.06;;;8.96
77412;BMP280;66484;49.968;19.140;2024-02-21T09:05:34;98254.50;;;8.97
77412;BMP280;66484;49.968;19.140;2024-02-21T09:07:43;98247.78;;;8.92
77412;BMP280;66484;49.968;19.140;2024-02-21T09:10:12;98244.41;;;9.01
77412;BMP280;66484;49.968;19.140;2024-02-21T09:12:41;98238.19;;;9.12
77412;BMP280;66484;49.968;19.140;2024-02-21T09:14:50;98247.91;;;9.28
77412;BMP280;66484;49.968;19.140;2024-02-21T09:17:12;98247.72;;;9.13
77412;BMP280;66484;49.968;19.140;2024-02-21T09:19:23;98242.69;;;9.24
77412;BMP280;66484;49.968;19.140;2024-02-21T09:21:51;98239.03;;;9.40
77412;BMP280;66484;49.968;19.140;2024-02-21T09:24:20;98237.06;;;9.31
77412;BMP280;66484;49.968;19.140;2024-02-21T09:26:29;98231.56;;;9.35
77412;BMP280;66484;49.968;19.140;2024-02-21T09:28:50;98229.94;;;9.37
77412;BMP280;66484;49.968;19.140;2024-02-21T09:30:59;98241.97;;;9.24
77412;BMP280;66484;49.968;19.140;2024-02-21T09:33:27;98246.44;;;9.27
77412;BMP280;66484;49.968;19.140;2024-02-21T09:35:36;98234.84;;;9.39
77412;BMP280;66484;49.968;19.140;2024-02-21T09:37:57;98230.41;;;9.45
77412;BMP280;66484;49.968;19.140;2024-02-21T09:40:06;98241.28;;;9.59
77412;BMP280;66484;49.968;19.140;2024-02-21T09:42:41;98237.13;;;9.67
77412;BMP280;66484;49.968;19.140;2024-02-21T09:45:30;98235.94;;;9.68
77412;BMP280;66484;49.968;19.140;2024-02-21T09:47:55;98240.41;;;9.71
77412;BMP280;66484;49.968;19.140;2024-02-21T09:50:21;98236.56;;;10.08
77412;BMP280;66484;49.968;19.140;2024-02-21T09:52:34;98234.75;;;10.22
77412;BMP280;66484;49.968;19.140;2024-02-21T09:54:58;98242.50;;;10.38
77412;BMP280;66484;49.968;19.140;2024-02-21T09:57:07;98237.31;;;10.17
77412;BMP280;66484;49.968;19.140;2024-02-21T09:59:37;98239.97;;;10.26
77412;BMP280;66484;49.968;19.140;2024-02-21T10:01:46;98241.34;;;10.21
77412;BMP280;66484;49.968;19.140;2024-02-21T10:03:58;98236.69;;;10.13
77412;BMP280;66484;49.968;19.140;2024-02-21T10:06:12;98239.84;;;10.11
77412;BMP280;66484;49.968;19.140;2024-02-21T10:08:28;98245.78;;;10.15
77412;BMP280;66484;49.968;19.140;2024-02-21T10:10:46;98237.19;;;10.03
77412;BMP280;66484;49.968;19.140;2024-02-21T10:13:00;98240.41;;;10.33
77412;BMP280;66484;49.968;19.140;2024-02-21T10:15:23;98233.56;;;10.41
77412;BMP280;66484;49.968;19.140;2024-02-21T10:17:42;98237.25;;;10.53
77412;BMP280;66484;49.968;19.140;2024-02-21T10:20:10;98224.00;;;10.49
77412;BMP280;66484;49.968;19.140;2024-02-21T10:22:25;98222.19;;;10.64
77412;BMP280;66484;49.968;19.140;2024-02-21T10:24:43;98227.28;;;10.94
77412;BMP280;66484;49.968;19.140;2024-02-21T10:27:03;98217.81;;;10.75
77412;BMP280;66484;49.968;19.140;2024-02-21T10:29:20;98225.75;;;11.02
77412;BMP280;66484;49.968;19.140;2024-02-21T10:31:35;98225.31;;;11.27
77412;BMP280;66484;49.968;19.140;2024-02-21T10:36:10;98213.78;;;11.35
77412;BMP280;66484;49.968;19.140;2024-02-21T10:38:19;98220.31;;;11.20
77412;BMP280;66484;49.968;19.140;2024-02-21T10:40:33;98211.72;;;11.07
77412;BMP280;66484;49.968;19.140;2024-02-21T10:42:54;98211.44;;;11.05
77412;BMP280;66484;49.968;19.140;2024-02-21T10:45:14;98204.06;;;11.23
77412;BMP280;66484;49.968;19.140;2024-02-21T10:47:31;98207.19;;;11.22
77412;BMP280;66484;49.968;19.140;2024-02-21T10:49:50;98206.66;;;11.09
77412;BMP280;66484;49.968;19.140;2024-02-21T10:55:07;98194.16;;;11.06
77412;BMP280;66484;49.968;19.140;2024-02-21T10:57:25;98187.44;;;11.34
77412;BMP280;66484;49.968;19.140;2024-02-21T10:59:40;98193.47;;;11.20
77412;BMP280;66484;49.968;19.140;2024-02-21T11:01:49;98187.50;;;11.25
77412;BMP280;66484;49.968;19.140;2024-02-21T11:04:12;98168.66;;;11.34
77412;BMP280;66484;49.968;19.140;2024-02-21T11:06:22;98165.88;;;11.52
77412;BMP280;66484;49.968;19.140;2024-02-21T11:08:44;98163.50;;;11.21
77412;BMP280;66484;49.968;19.140;2024-02-21T11:10:57;98173.97;;;11.43
77412;BMP280;66484;49.968;19.140;2024-02-21T11:13:40;98162.03;;;11.20
77412;BMP280;66484;49.968;19.140;2024-02-21T11:15:48;98169.56;;;11.08
77412;BMP280;66484;49.968;19.140;2024-02-21T11:18:10;98159.50;;;11.49
77412;BMP280;66484;49.968;19.140;2024-02-21T11:20:35;98154.53;;;11.48
77412;BMP280;66484;49.968;19.140;2024-02-21T11:22:50;98145.16;;;11.29
77412;BMP280;66484;49.968;19.140;2024-02-21T11:25:07;98145.50;;;11.22
77412;BMP280;66484;49.968;19.140;2024-02-21T11:27:33;98139.09;;;10.96
77412;BMP280;66484;49.968;19.140;2024-02-21T11:29:54;98125.94;;;10.98
77412;BMP280;66484;49.968;19.140;2024-02-21T11:32:16;98128.97;;;10.91
77412;BMP280;66484;49.968;19.140;2024-02-21T11:34:33;98131.03;;;10.96
77412;BMP280;66484;49.968;19.140;2024-02-21T11:36:51;98132.13;;;11.13
77412;BMP280;66484;49.968;19.140;2024-02-21T11:39:06;98125.56;;;11.14
77412;BMP280;66484;49.968;19.140;2024-02-21T11:41:28;98126.66;;;11.08
77412;BMP280;66484;49.968;19.140;2024-02-21T11:43:43;98131.72;;;10.82
77412;BMP280;66484;49.968;19.140;2024-02-21T11:46:02;98134.22;;;10.54
77412;BMP280;66484;49.968;19.140;2024-02-21T11:48:20;98129.72;;;10.60
77412;BMP280;66484;49.968;19.140;2024-02-21T11:50:41;98136.44;;;10.64
77412;BMP280;66484;49.968;19.140;2024-02-21T11:52:49;98131.75;;;10.73
77412;BMP280;66484;49.968;19.140;2024-02-21T11:55:18;98122.00;;;10.53
77412;BMP280;66484;49.968;19.140;2024-02-21T11:57:48;98130.94;;;10.59
77412;BMP280;66484;49.968;19.140;2024-02-21T11:59:56;98129.72;;;10.60
77412;BMP280;66484;49.968;19.140;2024-02-21T12:02:22;98118.53;;;10.70
77412;BMP280;66484;49.968;19.140;2024-02-21T12:04:30;98122.72;;;10.94
77412;BMP280;66484;49.968;19.140;2024-02-21T12:06:59;98119.16;;;10.88
77412;BMP280;66484;49.968;19.140;2024-02-21T12:09:28;98109.97;;;11.04
77412;BMP280;66484;49.968;19.140;2024-02-21T12:11:37;98100.81;;;11.19
77412;BMP280;66484;49.968;19.140;2024-02-21T12:14:02;98119.13;;;10.97
77412;BMP280;66484;49.968;19.140;2024-02-21T12:16:15;98103.94;;;10.94
77412;BMP280;66484;49.968;19.140;2024-02-21T12:18:39;98108.84;;;10.96
77412;BMP280;66484;49.968;19.140;2024-02-21T12:20:48;98112.50;;;10.84
77412;BMP280;66484;49.968;19.140;2024-02-21T12:23:10;98107.41;;;11.09
77412;BMP280;66484;49.968;19.140;2024-02-21T12:25:21;98113.66;;;10.92
77412;BMP280;66484;49.968;19.140;2024-02-21T12:27:45;98108.19;;;10.77
77412;BMP280;66484;49.968;19.140;2024-02-21T12:29:54;98101.38;;;10.76
77412;BMP280;66484;49.968;19.140;2024-02-21T12:32:16;98102.72;;;10.95
77412;BMP280;66484;49.968;19.140;2024-02-21T12:34:25;98103.47;;;10.72
77412;BMP280;66484;49.968;19.140;2024-02-21T12:37:08;98089.56;;;10.83
77412;BMP280;66484;49.968;19.140;2024-02-21T12:39:37;98093.03;;;10.74
77412;BMP280;66484;49.968;19.140;2024-02-21T12:41:47;98108.28;;;10.60
77412;BMP280;66484;49.968;19.140;2024-02-21T12:44:09;98104.28;;;10.64
77412;BMP280;66484;49.968;19.140;2024-02-21T12:46:17;98100.47;;;10.79
77412;BMP280;66484;49.968;19.140;2024-02-21T12:48:45;98095.34;;;10.58
77412;BMP280;66484;49.968;19.140;2024-02-21T12:51:14;98088.47;;;10.34
77412;BMP280;66484;49.968;19.140;2024-02-21T12:53:24;98090.25;;;10.28
77412;BMP280;66484;49.968;19.140;2024-02-21T12:55:48;98094.72;;;10.31
77412;BMP280;66484;49.968;19.140;2024-02-21T12:58:03;98096.78;;;10.36
77412;BMP280;66484;49.968;19.140;2024-02-21T13:00:31;98099.53;;;10.18
77412;BMP280;66484;49.968;19.140;2024-02-21T13:03:00;98096.91;;;10.00
77412;BMP280;66484;49.968;19.140;2024-02-21T13:05:09;98092.72;;;10.08
77412;BMP280;66484;49.968;19.140;2024-02-21T13:07:30;98091.56;;;10.00
77412;BMP280;66484;49.968;19.140;2024-02-21T13:09:40;98089.06;;;9.79
77412;BMP280;66484;49.968;19.140;2024-02-21T13:12:08;98084.41;;;9.88
77412;BMP280;66484;49.968;19.140;2024-02-21T13:14:38;98090.66;;;9.94
77412;BMP280;66484;49.968;19.140;2024-02-21T13:16:47;98091.22;;;10.07
77412;BMP280;66484;49.968;19.140;2024-02-21T13:19:15;98081.88;;;10.03